Marchen Maersk — OUIY2 — position and weather

sailwx.info

Track history (hours):
 
Tides and Currents Weather Stations Pressure Air Temp Water Temp Dewpoint Dewpoint Depression Visibility Wind Speed Wind Dir Waves Ship Positions

Marchen Maersk

Last reported at 2014-Sep-30 18:00 UTC. Time now 2014-Oct-01 06:11 UTC.
Position N 41°54' W 130°36'.

Length 367 m; draft 11 m.

Type: Ship (hazmat cat A). MMSI: 220594000.

Wind from 350 at 14 knots

Waves 1.0 meters (3 feet), 4 second period

Barometer 1027.0 mb
Air temperature 19.8 ° C
Visibility: greater than 10.8 NM
Dewpoint 10.7 ° C
Water temperature 19.0 ° C

Date/timePositionNaut miles runAvg speedWind from/ knotsBaromVisibWave heightAir tempDewpointWater temp
2014-Sep-30 18:00N 41°54' W 130°36'13411.2 350 / 141027.010.8 1.019.810.719.0
2014-Sep-30 06:00N 40°24' W 128°24'18210.3 020 / 171023.010.8 18.511.719.0
2014-Sep-29 12:23N 38°12' W 125°41'1311.0
2014-Sep-29 11:11N 38°03' W 125°29'810.9
2014-Sep-29 10:26N 37°58' W 125°22'1110.8
2014-Sep-29 09:27N 37°50' W 125°12'4212.3
2014-Sep-29 06:00N 37°24' W 124°30'13 7.6 010 / 181018.010.8 1.517.413.418.0
2014-Sep-29 04:15N 37°12' W 124°24'1010.6
2014-Sep-29 03:20N 37°05' W 124°15'1311.1
2014-Sep-29 02:08N 36°55' W 124°03'711.2
2014-Sep-29 01:31N 36°50' W 123°57'4611.3
2014-Sep-28 21:29N 36°19' W 123°17'1111.8
2014-Sep-28 20:33N 36°11' W 123°07'1111.4
2014-Sep-28 19:33N 36°03' W 122°57'1111.5
2014-Sep-28 18:33N 35°54' W 122°47'1527.3
2014-Sep-28 18:00N 35°48' W 122°30'612.1 330 / 91016.010.8 1.019.014.118.0
2014-Sep-28 17:32N 35°46' W 122°36'1111.6
2014-Sep-28 16:33N 35°38' W 122°26'1111.4
2014-Sep-28 15:33N 35°30' W 122°17'1111.0
2014-Sep-28 14:33N 35°22' W 122°07'1211.3
2014-Sep-28 13:31N 35°14' W 121°57'1311.5
2014-Sep-28 12:23N 35°05' W 121°45'9011.1
2014-Sep-28 04:15N 34°17' W 120°13'810.9
2014-Sep-28 03:33N 34°15' W 120°04'1110.7
2014-Sep-28 02:33N 34°12' W 119°51'1010.0
2014-Sep-28 01:33N 34°10' W 119°40'10 9.8
2014-Sep-28 00:33N 34°07' W 119°28'9 9.1
2014-Sep-27 23:33N 34°05' W 119°18'10 9.7
2014-Sep-27 22:33N 34°00' W 119°07'1110.9
2014-Sep-27 21:33N 33°55' W 118°56'35 8.8
2014-Sep-27 17:33N 33°43' W 118°16'1 0.9
2014-Sep-27 16:24N 33°44' W 118°15'0 0.0
2014-Sep-27 14:33N 33°44' W 118°15'0 0.0
2014-Sep-27 13:12N 33°44' W 118°15'0 0.0
2014-Sep-27 12:30N 33°44' W 118°15'0 0.0
2014-Sep-27 11:30N 33°44' W 118°15'0 0.0
2014-Sep-27 10:30N 33°44' W 118°15'0 0.0
2014-Sep-27 09:30N 33°44' W 118°15'0 0.0
2014-Sep-27 08:30N 33°44' W 118°15'0 0.0
2014-Sep-27 07:33N 33°44' W 118°15'0 0.0
2014-Sep-27 06:12N 33°44' W 118°15'0 0.0
2014-Sep-27 05:30N 33°44' W 118°15'0 0.0
2014-Sep-27 04:12N 33°44' W 118°15'0 0.0
2014-Sep-27 03:24N 33°44' W 118°15'0 0.0
2014-Sep-27 02:09N 33°44' W 118°15'0 0.0
2014-Sep-27 00:06N 33°44' W 118°15'0 0.0
2014-Sep-26 23:18N 33°44' W 118°15'0 0.0
2014-Sep-26 22:12N 33°44' W 118°15'0 0.0
2014-Sep-26 21:33N 33°44' W 118°15'0 0.0
2014-Sep-26 20:33N 33°44' W 118°15'0 0.0
2014-Sep-26 19:27N 33°44' W 118°15'0 0.0
2014-Sep-26 18:27N 33°44' W 118°15'0 0.0
2014-Sep-26 17:33N 33°44' W 118°15'0 0.0
2014-Sep-26 16:33N 33°44' W 118°15'0 0.0
2014-Sep-26 15:33N 33°44' W 118°15'0 0.0
2014-Sep-26 14:30N 33°44' W 118°15'0 0.0
2014-Sep-26 13:30N 33°44' W 118°15'0 0.0
2014-Sep-26 12:30N 33°44' W 118°15'0 0.0
2014-Sep-26 11:30N 33°44' W 118°15'0 0.0
2014-Sep-26 10:33N 33°44' W 118°15'0 0.0
2014-Sep-26 09:33N 33°44' W 118°15'0 0.0
2014-Sep-26 08:33N 33°44' W 118°15'0 0.0
2014-Sep-26 07:33N 33°44' W 118°15'0 0.0
2014-Sep-26 06:33N 33°44' W 118°15'0 0.0
2014-Sep-26 05:33N 33°44' W 118°15'0 0.0
2014-Sep-26 04:33N 33°44' W 118°15'0 0.0
2014-Sep-26 03:33N 33°44' W 118°15'0 0.0
2014-Sep-26 02:33N 33°44' W 118°15'0 0.0
2014-Sep-26 01:33N 33°44' W 118°15'0 0.0
2014-Sep-26 00:33N 33°44' W 118°15'0 0.0
2014-Sep-25 23:33N 33°44' W 118°15'0 0.0
2014-Sep-25 22:33N 33°44' W 118°15'0 0.0
2014-Sep-25 21:33N 33°44' W 118°15'0 0.0
2014-Sep-25 20:33N 33°44' W 118°15'0 0.0
2014-Sep-25 19:33N 33°44' W 118°15'0 0.0
2014-Sep-25 18:33N 33°44' W 118°15'0 0.0
2014-Sep-25 17:33N 33°44' W 118°15'0 0.0
2014-Sep-25 16:33N 33°44' W 118°15'0 0.0
2014-Sep-25 15:33N 33°44' W 118°15'0 0.0
2014-Sep-25 14:33N 33°44' W 118°15'0 0.0
2014-Sep-25 13:33N 33°44' W 118°15'0 0.0
2014-Sep-25 12:33N 33°44' W 118°15'0 0.0
2014-Sep-25 11:33N 33°44' W 118°15'0 0.0
2014-Sep-25 10:33N 33°44' W 118°15'0 0.0
2014-Sep-25 09:33N 33°44' W 118°15'0 0.0
2014-Sep-25 08:33N 33°44' W 118°15'0 0.0
2014-Sep-25 07:33N 33°44' W 118°15'0 0.0
2014-Sep-25 06:33N 33°44' W 118°15'0 0.0
2014-Sep-25 05:33N 33°44' W 118°15'0 0.0
2014-Sep-25 04:33N 33°44' W 118°15'0 0.0
2014-Sep-25 03:33N 33°44' W 118°15'0 0.0
2014-Sep-25 02:33N 33°44' W 118°15'0 0.0
2014-Sep-25 01:33N 33°44' W 118°15'0 0.0
2014-Sep-25 00:33N 33°44' W 118°15'0 0.0
2014-Sep-24 23:33N 33°44' W 118°15'0 0.0
2014-Sep-24 22:33N 33°44' W 118°15'0 0.0
2014-Sep-24 21:33N 33°44' W 118°15'0 0.0
2014-Sep-24 20:33N 33°44' W 118°15'0 0.0
2014-Sep-24 19:33N 33°44' W 118°15'0 0.0
2014-Sep-24 18:33N 33°44' W 118°15'0 0.0
2014-Sep-24 17:33N 33°44' W 118°15'0 0.0
2014-Sep-24 16:33N 33°44' W 118°15'0 0.0
2014-Sep-24 15:33N 33°44' W 118°15'0 0.0
2014-Sep-24 14:33N 33°44' W 118°15'0 0.0
2014-Sep-24 13:33N 33°44' W 118°15'0 0.0
2014-Sep-24 12:30N 33°44' W 118°15'0 0.0
2014-Sep-24 11:33N 33°44' W 118°15'0 0.0
2014-Sep-24 10:33N 33°44' W 118°15'0 0.0
2014-Sep-24 09:33N 33°44' W 118°15'0 0.0
2014-Sep-24 08:33N 33°44' W 118°15'0 0.0
2014-Sep-24 07:33N 33°44' W 118°15'0 0.0
2014-Sep-24 06:33N 33°44' W 118°15'0 0.0
2014-Sep-24 05:33N 33°44' W 118°15'0 0.0
2014-Sep-24 04:34N 33°44' W 118°15'0 0.0
2014-Sep-24 03:34N 33°44' W 118°15'0 0.0
2014-Sep-24 02:33N 33°44' W 118°15'0 0.0
2014-Sep-24 01:33N 33°44' W 118°15'0 0.0
2014-Sep-24 00:34N 33°44' W 118°15'0 0.0
2014-Sep-23 23:34N 33°44' W 118°15'0 0.0
2014-Sep-23 22:34N 33°44' W 118°15'0 0.0
2014-Sep-23 21:34N 33°44' W 118°15'0 0.0
2014-Sep-23 20:34N 33°44' W 118°15'0 0.0
2014-Sep-23 19:33N 33°44' W 118°15'0 0.0
2014-Sep-23 18:32N 33°44' W 118°15'0 0.0
2014-Sep-23 17:23N 33°44' W 118°15'0 0.0
2014-Sep-23 16:31N 33°44' W 118°15'0 0.0
2014-Sep-23 15:33N 33°44' W 118°15'0 0.0
2014-Sep-23 14:33N 33°44' W 118°15'0 0.0
2014-Sep-23 13:33N 33°44' W 118°15'0 0.0
2014-Sep-23 12:33N 33°44' W 118°15'0 0.0
2014-Sep-23 11:33N 33°44' W 118°15'0 0.0
2014-Sep-23 10:33N 33°44' W 118°15'0 0.0
2014-Sep-23 09:25N 33°44' W 118°15'0 0.0
2014-Sep-23 08:33N 33°44' W 118°15'0 0.0
2014-Sep-23 07:33N 33°44' W 118°15'0 0.0
2014-Sep-23 06:33N 33°44' W 118°15'0 0.0
2014-Sep-23 05:33N 33°44' W 118°15'0 0.0
2014-Sep-23 04:20N 33°44' W 118°15'0 0.0
2014-Sep-23 03:34N 33°44' W 118°15'0 0.0
2014-Sep-23 02:33N 33°44' W 118°15'0 0.0
2014-Sep-23 01:34N 33°44' W 118°15'0 0.0
2014-Sep-23 00:34N 33°44' W 118°15'0 0.0
2014-Sep-22 23:33N 33°44' W 118°15'0 0.0
2014-Sep-22 22:34N 33°44' W 118°15'0 0.0
2014-Sep-22 21:34N 33°44' W 118°15'0 0.0
2014-Sep-22 20:33N 33°44' W 118°15'0 0.0
2014-Sep-22 19:33N 33°44' W 118°15'0 0.0
2014-Sep-22 18:34N 33°44' W 118°15'0 0.0
2014-Sep-22 17:34N 33°44' W 118°15'0 0.0
2014-Sep-22 16:33N 33°44' W 118°15'0 0.0
2014-Sep-22 15:34N 33°44' W 118°15'0 0.0
2014-Sep-22 14:34N 33°44' W 118°15'0 0.0
2014-Sep-22 13:33N 33°44' W 118°15'0 0.0
2014-Sep-22 12:33N 33°44' W 118°15'0 0.0
2014-Sep-22 11:33N 33°44' W 118°15'1 1.1
2014-Sep-22 10:33N 33°43' W 118°15'5 5.1
2014-Sep-22 09:34N 33°38' W 118°14'7 7.3
2014-Sep-22 08:33N 33°37' W 118°23'9 9.2
2014-Sep-22 07:33N 33°42' W 118°32'9 8.7
2014-Sep-22 06:34N 33°46' W 118°41'10 9.7
2014-Sep-22 05:34N 33°51' W 118°52'1111.4
2014-Sep-22 04:33N 33°56' W 119°03'1212.1
2014-Sep-22 03:34N 34°02' W 119°16'1211.7
2014-Sep-22 02:33N 34°06' W 119°30'1312.4
2014-Sep-22 01:33N 34°09' W 119°44'1212.3
2014-Sep-22 00:33N 34°12' W 119°59'1211.9
2014-Sep-21 23:33N 34°15' W 120°12'1212.0
2014-Sep-21 22:34N 34°18' W 120°27'15114.7
2014-Sep-21 12:15N 35°25' W 123°12'1217.8
2014-Sep-21 11:33N 35°31' W 123°25'1817.7
2014-Sep-21 10:33N 35°39' W 123°45'1818.2
2014-Sep-21 09:33N 35°48' W 124°05'1918.3
2014-Sep-21 08:30N 35°57' W 124°26'4018.1
2014-Sep-21 06:17N 36°16' W 125°09'1618.0
2014-Sep-21 05:23N 36°24' W 125°27'3417.7
2014-Sep-21 03:26N 36°41' W 126°04'1517.5
2014-Sep-21 02:33N 36°48' W 126°21'7117.7
2014-Sep-20 22:33N 37°20' W 127°41'  
Track history (hours):
 
Tides and Currents Weather Stations Pressure Air Temp Water Temp Dewpoint Dewpoint Depression Visibility Wind Speed Wind Dir Waves Ship Positions

Marchen Maersk

Last reported at 2014-Sep-30 18:00 UTC. Time now 2014-Oct-01 06:11 UTC.
Position N 41°54' W 130°36'.

Length 367 m; draft 11 m.

Type: Ship (hazmat cat A). MMSI: 220594000.

Wind from 350 at 14 knots

Waves 1.0 meters (3 feet), 4 second period

Barometer 1027.0 mb
Air temperature 19.8 ° C
Visibility: greater than 10.8 NM
Dewpoint 10.7 ° C
Water temperature 19.0 ° C

Date/timePositionNaut miles runAvg speedWind from/ knotsBaromVisibWave heightAir tempDewpointWater temp
2014-Sep-30 18:00N 41°54' W 130°36'13411.2 350 / 141027.010.8 1.019.810.719.0
2014-Sep-30 06:00N 40°24' W 128°24'18210.3 020 / 171023.010.8 18.511.719.0
2014-Sep-29 12:23N 38°12' W 125°41'1311.0
2014-Sep-29 11:11N 38°03' W 125°29'810.9
2014-Sep-29 10:26N 37°58' W 125°22'1110.8
2014-Sep-29 09:27N 37°50' W 125°12'4212.3
2014-Sep-29 06:00N 37°24' W 124°30'13 7.6 010 / 181018.010.8 1.517.413.418.0
2014-Sep-29 04:15N 37°12' W 124°24'1010.6
2014-Sep-29 03:20N 37°05' W 124°15'1311.1
2014-Sep-29 02:08N 36°55' W 124°03'711.2
2014-Sep-29 01:31N 36°50' W 123°57'4611.3
2014-Sep-28 21:29N 36°19' W 123°17'1111.8
2014-Sep-28 20:33N 36°11' W 123°07'1111.4
2014-Sep-28 19:33N 36°03' W 122°57'1111.5
2014-Sep-28 18:33N 35°54' W 122°47'1527.3
2014-Sep-28 18:00N 35°48' W 122°30'612.1 330 / 91016.010.8 1.019.014.118.0
2014-Sep-28 17:32N 35°46' W 122°36'1111.6
2014-Sep-28 16:33N 35°38' W 122°26'1111.4
2014-Sep-28 15:33N 35°30' W 122°17'1111.0
2014-Sep-28 14:33N 35°22' W 122°07'1211.3
2014-Sep-28 13:31N 35°14' W 121°57'1311.5
2014-Sep-28 12:23N 35°05' W 121°45'9011.1
2014-Sep-28 04:15N 34°17' W 120°13'810.9
2014-Sep-28 03:33N 34°15' W 120°04'1110.7
2014-Sep-28 02:33N 34°12' W 119°51'1010.0
2014-Sep-28 01:33N 34°10' W 119°40'10 9.8
2014-Sep-28 00:33N 34°07' W 119°28'9 9.1
2014-Sep-27 23:33N 34°05' W 119°18'10 9.7
2014-Sep-27 22:33N 34°00' W 119°07'1110.9
2014-Sep-27 21:33N 33°55' W 118°56'35 8.8
2014-Sep-27 17:33N 33°43' W 118°16'1 0.9
2014-Sep-27 16:24N 33°44' W 118°15'0 0.0
2014-Sep-27 14:33N 33°44' W 118°15'0 0.0
2014-Sep-27 13:12N 33°44' W 118°15'0 0.0
2014-Sep-27 12:30N 33°44' W 118°15'0 0.0
2014-Sep-27 11:30N 33°44' W 118°15'0 0.0
2014-Sep-27 10:30N 33°44' W 118°15'0 0.0
2014-Sep-27 09:30N 33°44' W 118°15'0 0.0
2014-Sep-27 08:30N 33°44' W 118°15'0 0.0
2014-Sep-27 07:33N 33°44' W 118°15'0 0.0
2014-Sep-27 06:12N 33°44' W 118°15'0 0.0
2014-Sep-27 05:30N 33°44' W 118°15'0 0.0
2014-Sep-27 04:12N 33°44' W 118°15'0 0.0
2014-Sep-27 03:24N 33°44' W 118°15'0 0.0
2014-Sep-27 02:09N 33°44' W 118°15'0 0.0
2014-Sep-27 00:06N 33°44' W 118°15'0 0.0
2014-Sep-26 23:18N 33°44' W 118°15'0 0.0
2014-Sep-26 22:12N 33°44' W 118°15'0 0.0
2014-Sep-26 21:33N 33°44' W 118°15'0 0.0
2014-Sep-26 20:33N 33°44' W 118°15'0 0.0
2014-Sep-26 19:27N 33°44' W 118°15'0 0.0
2014-Sep-26 18:27N 33°44' W 118°15'0 0.0
2014-Sep-26 17:33N 33°44' W 118°15'0 0.0
2014-Sep-26 16:33N 33°44' W 118°15'0 0.0
2014-Sep-26 15:33N 33°44' W 118°15'0 0.0
2014-Sep-26 14:30N 33°44' W 118°15'0 0.0
2014-Sep-26 13:30N 33°44' W 118°15'0 0.0
2014-Sep-26 12:30N 33°44' W 118°15'0 0.0
2014-Sep-26 11:30N 33°44' W 118°15'0 0.0
2014-Sep-26 10:33N 33°44' W 118°15'0 0.0
2014-Sep-26 09:33N 33°44' W 118°15'0 0.0
2014-Sep-26 08:33N 33°44' W 118°15'0 0.0
2014-Sep-26 07:33N 33°44' W 118°15'0 0.0
2014-Sep-26 06:33N 33°44' W 118°15'0 0.0
2014-Sep-26 05:33N 33°44' W 118°15'0 0.0
2014-Sep-26 04:33N 33°44' W 118°15'0 0.0
2014-Sep-26 03:33N 33°44' W 118°15'0 0.0
2014-Sep-26 02:33N 33°44' W 118°15'0 0.0
2014-Sep-26 01:33N 33°44' W 118°15'0 0.0
2014-Sep-26 00:33N 33°44' W 118°15'0 0.0
2014-Sep-25 23:33N 33°44' W 118°15'0 0.0
2014-Sep-25 22:33N 33°44' W 118°15'0 0.0
2014-Sep-25 21:33N 33°44' W 118°15'0 0.0
2014-Sep-25 20:33N 33°44' W 118°15'0 0.0
2014-Sep-25 19:33N 33°44' W 118°15'0 0.0
2014-Sep-25 18:33N 33°44' W 118°15'0 0.0
2014-Sep-25 17:33N 33°44' W 118°15'0 0.0
2014-Sep-25 16:33N 33°44' W 118°15'0 0.0
2014-Sep-25 15:33N 33°44' W 118°15'0 0.0
2014-Sep-25 14:33N 33°44' W 118°15'0 0.0
2014-Sep-25 13:33N 33°44' W 118°15'0 0.0
2014-Sep-25 12:33N 33°44' W 118°15'0 0.0
2014-Sep-25 11:33N 33°44' W 118°15'0 0.0
2014-Sep-25 10:33N 33°44' W 118°15'0 0.0
2014-Sep-25 09:33N 33°44' W 118°15'0 0.0
2014-Sep-25 08:33N 33°44' W 118°15'0 0.0
2014-Sep-25 07:33N 33°44' W 118°15'0 0.0
2014-Sep-25 06:33N 33°44' W 118°15'0 0.0
2014-Sep-25 05:33N 33°44' W 118°15'0 0.0
2014-Sep-25 04:33N 33°44' W 118°15'0 0.0
2014-Sep-25 03:33N 33°44' W 118°15'0 0.0
2014-Sep-25 02:33N 33°44' W 118°15'0 0.0
2014-Sep-25 01:33N 33°44' W 118°15'0 0.0
2014-Sep-25 00:33N 33°44' W 118°15'0 0.0
2014-Sep-24 23:33N 33°44' W 118°15'0 0.0
2014-Sep-24 22:33N 33°44' W 118°15'0 0.0
2014-Sep-24 21:33N 33°44' W 118°15'0 0.0
2014-Sep-24 20:33N 33°44' W 118°15'0 0.0
2014-Sep-24 19:33N 33°44' W 118°15'0 0.0
2014-Sep-24 18:33N 33°44' W 118°15'0 0.0
2014-Sep-24 17:33N 33°44' W 118°15'0 0.0
2014-Sep-24 16:33N 33°44' W 118°15'0 0.0
2014-Sep-24 15:33N 33°44' W 118°15'0 0.0
2014-Sep-24 14:33N 33°44' W 118°15'0 0.0
2014-Sep-24 13:33N 33°44' W 118°15'0 0.0
2014-Sep-24 12:30N 33°44' W 118°15'0 0.0
2014-Sep-24 11:33N 33°44' W 118°15'0 0.0
2014-Sep-24 10:33N 33°44' W 118°15'0 0.0
2014-Sep-24 09:33N 33°44' W 118°15'0 0.0
2014-Sep-24 08:33N 33°44' W 118°15'0 0.0
2014-Sep-24 07:33N 33°44' W 118°15'0 0.0
2014-Sep-24 06:33N 33°44' W 118°15'0 0.0
2014-Sep-24 05:33N 33°44' W 118°15'0 0.0
2014-Sep-24 04:34N 33°44' W 118°15'0 0.0
2014-Sep-24 03:34N 33°44' W 118°15'0 0.0
2014-Sep-24 02:33N 33°44' W 118°15'0 0.0
2014-Sep-24 01:33N 33°44' W 118°15'0 0.0
2014-Sep-24 00:34N 33°44' W 118°15'0 0.0
2014-Sep-23 23:34N 33°44' W 118°15'0 0.0
2014-Sep-23 22:34N 33°44' W 118°15'0 0.0
2014-Sep-23 21:34N 33°44' W 118°15'0 0.0
2014-Sep-23 20:34N 33°44' W 118°15'0 0.0
2014-Sep-23 19:33N 33°44' W 118°15'0 0.0
2014-Sep-23 18:32N 33°44' W 118°15'0 0.0
2014-Sep-23 17:23N 33°44' W 118°15'0 0.0
2014-Sep-23 16:31N 33°44' W 118°15'0 0.0
2014-Sep-23 15:33N 33°44' W 118°15'0 0.0
2014-Sep-23 14:33N 33°44' W 118°15'0 0.0
2014-Sep-23 13:33N 33°44' W 118°15'0 0.0
2014-Sep-23 12:33N 33°44' W 118°15'0 0.0
2014-Sep-23 11:33N 33°44' W 118°15'0 0.0
2014-Sep-23 10:33N 33°44' W 118°15'0 0.0
2014-Sep-23 09:25N 33°44' W 118°15'0 0.0
2014-Sep-23 08:33N 33°44' W 118°15'0 0.0
2014-Sep-23 07:33N 33°44' W 118°15'0 0.0
2014-Sep-23 06:33N 33°44' W 118°15'0 0.0
2014-Sep-23 05:33N 33°44' W 118°15'0 0.0
2014-Sep-23 04:20N 33°44' W 118°15'0 0.0
2014-Sep-23 03:34N 33°44' W 118°15'0 0.0
2014-Sep-23 02:33N 33°44' W 118°15'0 0.0
2014-Sep-23 01:34N 33°44' W 118°15'0 0.0
2014-Sep-23 00:34N 33°44' W 118°15'0 0.0
2014-Sep-22 23:33N 33°44' W 118°15'0 0.0
2014-Sep-22 22:34N 33°44' W 118°15'0 0.0
2014-Sep-22 21:34N 33°44' W 118°15'0 0.0
2014-Sep-22 20:33N 33°44' W 118°15'0 0.0
2014-Sep-22 19:33N 33°44' W 118°15'0 0.0
2014-Sep-22 18:34N 33°44' W 118°15'0 0.0
2014-Sep-22 17:34N 33°44' W 118°15'0 0.0
2014-Sep-22 16:33N 33°44' W 118°15'0 0.0
2014-Sep-22 15:34N 33°44' W 118°15'0 0.0
2014-Sep-22 14:34N 33°44' W 118°15'0 0.0
2014-Sep-22 13:33N 33°44' W 118°15'0 0.0
2014-Sep-22 12:33N 33°44' W 118°15'0 0.0
2014-Sep-22 11:33N 33°44' W 118°15'1 1.1
2014-Sep-22 10:33N 33°43' W 118°15'5 5.1
2014-Sep-22 09:34N 33°38' W 118°14'7 7.3
2014-Sep-22 08:33N 33°37' W 118°23'9 9.2
2014-Sep-22 07:33N 33°42' W 118°32'9 8.7
2014-Sep-22 06:34N 33°46' W 118°41'10 9.7
2014-Sep-22 05:34N 33°51' W 118°52'1111.4
2014-Sep-22 04:33N 33°56' W 119°03'1212.1
2014-Sep-22 03:34N 34°02' W 119°16'1211.7
2014-Sep-22 02:33N 34°06' W 119°30'1312.4
2014-Sep-22 01:33N 34°09' W 119°44'1212.3
2014-Sep-22 00:33N 34°12' W 119°59'1211.9
2014-Sep-21 23:33N 34°15' W 120°12'1212.0
2014-Sep-21 22:34N 34°18' W 120°27'15114.7
2014-Sep-21 12:15N 35°25' W 123°12'1217.8
2014-Sep-21 11:33N 35°31' W 123°25'1817.7
2014-Sep-21 10:33N 35°39' W 123°45'1818.2
2014-Sep-21 09:33N 35°48' W 124°05'1918.3
2014-Sep-21 08:30N 35°57' W 124°26'4018.1
2014-Sep-21 06:17N 36°16' W 125°09'1618.0
2014-Sep-21 05:23N 36°24' W 125°27'3417.7
2014-Sep-21 03:26N 36°41' W 126°04'1517.5
2014-Sep-21 02:33N 36°48' W 126°21'7117.7
2014-Sep-20 22:33N 37°20' W 127°41'  

Dump ship's entire track history